sensor_id;sensor_type;location;lat;lon;timestamp;P1;durP1;ratioP1;P2;durP2;ratioP2
25153;SDS011;47555;51.038;6.280;2023-01-23T00:00:27;64.05;;;19.88;;
25153;SDS011;47555;51.038;6.280;2023-01-23T00:02:53;66.63;;;21.80;;
25153;SDS011;47555;51.038;6.280;2023-01-23T00:05:18;66.47;;;21.33;;
25153;SDS011;47555;51.038;6.280;2023-01-23T00:07:44;62.72;;;22.10;;
25153;SDS011;47555;51.038;6.280;2023-01-23T00:10:09;62.35;;;22.80;;
25153;SDS011;47555;51.038;6.280;2023-01-23T00:12:35;68.70;;;21.85;;
25153;SDS011;47555;51.038;6.280;2023-01-23T00:15:01;63.58;;;21.63;;
25153;SDS011;47555;51.038;6.280;2023-01-23T00:17:27;67.30;;;22.77;;
25153;SDS011;47555;51.038;6.280;2023-01-23T00:19:53;69.40;;;23.02;;
25153;SDS011;47555;51.038;6.280;2023-01-23T00:22:19;73.22;;;22.88;;
25153;SDS011;47555;51.038;6.280;2023-01-23T00:24:44;68.78;;;23.25;;
25153;SDS011;47555;51.038;6.280;2023-01-23T00:27:10;72.93;;;22.17;;
25153;SDS011;47555;51.038;6.280;2023-01-23T00:29:36;63.60;;;20.95;;
25153;SDS011;47555;51.038;6.280;2023-01-23T00:32:01;65.00;;;21.77;;
25153;SDS011;47555;51.038;6.280;2023-01-23T00:34:27;79.38;;;24.05;;
25153;SDS011;47555;51.038;6.280;2023-01-23T00:36:52;82.75;;;22.40;;
25153;SDS011;47555;51.038;6.280;2023-01-23T00:39:20;69.60;;;23.65;;
25153;SDS011;47555;51.038;6.280;2023-01-23T00:41:46;63.55;;;20.90;;
25153;SDS011;47555;51.038;6.280;2023-01-23T00:44:15;80.05;;;22.90;;
25153;SDS011;47555;51.038;6.280;2023-01-23T00:46:41;77.80;;;22.00;;
25153;SDS011;47555;51.038;6.280;2023-01-23T00:49:07;69.78;;;22.92;;
25153;SDS011;47555;51.038;6.280;2023-01-23T00:51:33;70.82;;;22.13;;
25153;SDS011;47555;51.038;6.280;2023-01-23T00:53:59;71.53;;;22.55;;
25153;SDS011;47555;51.038;6.280;2023-01-23T00:56:24;63.03;;;21.42;;
25153;SDS011;47555;51.038;6.280;2023-01-23T00:58:50;69.03;;;22.20;;
25153;SDS011;47555;51.038;6.280;2023-01-23T01:01:16;71.70;;;22.20;;
25153;SDS011;47555;51.038;6.280;2023-01-23T01:03:42;65.25;;;21.58;;
25153;SDS011;47555;51.038;6.280;2023-01-23T01:06:08;57.22;;;20.75;;
25153;SDS011;47555;51.038;6.280;2023-01-23T01:08:34;66.60;;;21.17;;
25153;SDS011;47555;51.038;6.280;2023-01-23T01:11:00;71.88;;;23.58;;
25153;SDS011;47555;51.038;6.280;2023-01-23T01:13:26;63.50;;;21.58;;
25153;SDS011;47555;51.038;6.280;2023-01-23T01:15:52;66.97;;;21.75;;
25153;SDS011;47555;51.038;6.280;2023-01-23T01:18:19;57.88;;;21.60;;
25153;SDS011;47555;51.038;6.280;2023-01-23T01:20:45;66.03;;;20.88;;
25153;SDS011;47555;51.038;6.280;2023-01-23T01:23:11;72.30;;;22.73;;
25153;SDS011;47555;51.038;6.280;2023-01-23T01:25:37;64.38;;;22.60;;
25153;SDS011;47555;51.038;6.280;2023-01-23T01:28:02;72.53;;;22.38;;
25153;SDS011;47555;51.038;6.280;2023-01-23T01:30:29;68.65;;;20.27;;
25153;SDS011;47555;51.038;6.280;2023-01-23T01:32:54;66.38;;;24.88;;
25153;SDS011;47555;51.038;6.280;2023-01-23T01:35:20;65.25;;;21.77;;
25153;SDS011;47555;51.038;6.280;2023-01-23T01:37:47;61.97;;;19.77;;
25153;SDS011;47555;51.038;6.280;2023-01-23T01:40:15;74.88;;;23.80;;
25153;SDS011;47555;51.038;6.280;2023-01-23T01:42:51;89.57;;;23.90;;
25153;SDS011;47555;51.038;6.280;2023-01-23T01:54:05;67.20;;;22.85;;
25153;SDS011;47555;51.038;6.280;2023-01-23T01:56:54;60.70;;;21.25;;
25153;SDS011;47555;51.038;6.280;2023-01-23T01:59:37;69.95;;;23.02;;
25153;SDS011;47555;51.038;6.280;2023-01-23T02:02:11;74.63;;;22.83;;
25153;SDS011;47555;51.038;6.280;2023-01-23T02:04:50;68.68;;;22.83;;
25153;SDS011;47555;51.038;6.280;2023-01-23T02:07:26;57.45;;;20.02;;
25153;SDS011;47555;51.038;6.280;2023-01-23T02:09:58;64.63;;;22.17;;
25153;SDS011;47555;51.038;6.280;2023-01-23T02:12:25;62.20;;;20.85;;
25153;SDS011;47555;51.038;6.280;2023-01-23T02:14:52;68.80;;;23.63;;
25153;SDS011;47555;51.038;6.280;2023-01-23T02:17:17;62.38;;;21.80;;
25153;SDS011;47555;51.038;6.280;2023-01-23T02:25:21;53.38;;;19.65;;
25153;SDS011;47555;51.038;6.280;2023-01-23T02:27:53;54.40;;;20.83;;
25153;SDS011;47555;51.038;6.280;2023-01-23T02:30:19;56.03;;;20.63;;
25153;SDS011;47555;51.038;6.280;2023-01-23T02:32:45;51.00;;;19.90;;
25153;SDS011;47555;51.038;6.280;2023-01-23T02:35:14;59.47;;;19.10;;
25153;SDS011;47555;51.038;6.280;2023-01-23T02:37:54;57.92;;;20.45;;
25153;SDS011;47555;51.038;6.280;2023-01-23T02:40:34;66.07;;;22.42;;
25153;SDS011;47555;51.038;6.280;2023-01-23T02:43:02;47.72;;;20.65;;
25153;SDS011;47555;51.038;6.280;2023-01-23T02:45:30;58.92;;;20.55;;
25153;SDS011;47555;51.038;6.280;2023-01-23T02:47:56;53.53;;;19.95;;
25153;SDS011;47555;51.038;6.280;2023-01-23T02:50:22;58.15;;;19.98;;
25153;SDS011;47555;51.038;6.280;2023-01-23T02:52:48;57.63;;;19.83;;
25153;SDS011;47555;51.038;6.280;2023-01-23T02:55:16;58.60;;;21.45;;
25153;SDS011;47555;51.038;6.280;2023-01-23T02:57:41;56.72;;;20.92;;
25153;SDS011;47555;51.038;6.280;2023-01-23T03:00:09;50.40;;;20.40;;
25153;SDS011;47555;51.038;6.280;2023-01-23T03:02:41;57.90;;;20.40;;
25153;SDS011;47555;51.038;6.280;2023-01-23T03:05:07;55.17;;;19.45;;
25153;SDS011;47555;51.038;6.280;2023-01-23T03:07:34;51.85;;;21.20;;
25153;SDS011;47555;51.038;6.280;2023-01-23T03:10:00;56.60;;;19.20;;
25153;SDS011;47555;51.038;6.280;2023-01-23T03:12:26;51.05;;;18.70;;
25153;SDS011;47555;51.038;6.280;2023-01-23T03:14:52;64.78;;;20.63;;
25153;SDS011;47555;51.038;6.280;2023-01-23T03:17:19;55.92;;;20.80;;
25153;SDS011;47555;51.038;6.280;2023-01-23T03:19:45;50.58;;;18.60;;
25153;SDS011;47555;51.038;6.280;2023-01-23T03:22:10;51.70;;;18.75;;
25153;SDS011;47555;51.038;6.280;2023-01-23T03:24:42;56.22;;;19.05;;
25153;SDS011;47555;51.038;6.280;2023-01-23T03:27:07;52.72;;;19.85;;
25153;SDS011;47555;51.038;6.280;2023-01-23T03:29:33;45.67;;;17.70;;
25153;SDS011;47555;51.038;6.280;2023-01-23T03:32:17;48.95;;;18.13;;
25153;SDS011;47555;51.038;6.280;2023-01-23T03:34:43;54.63;;;18.85;;
25153;SDS011;47555;51.038;6.280;2023-01-23T03:37:09;45.17;;;18.50;;
25153;SDS011;47555;51.038;6.280;2023-01-23T03:39:36;39.22;;;16.70;;
25153;SDS011;47555;51.038;6.280;2023-01-23T03:42:20;45.38;;;17.08;;
25153;SDS011;47555;51.038;6.280;2023-01-23T03:44:46;39.25;;;16.83;;
25153;SDS011;47555;51.038;6.280;2023-01-23T03:47:12;41.40;;;16.45;;
25153;SDS011;47555;51.038;6.280;2023-01-23T03:49:38;45.20;;;16.88;;
25153;SDS011;47555;51.038;6.280;2023-01-23T03:52:03;40.10;;;15.50;;
25153;SDS011;47555;51.038;6.280;2023-01-23T03:54:29;37.40;;;15.85;;
25153;SDS011;47555;51.038;6.280;2023-01-23T03:56:55;35.58;;;15.93;;
25153;SDS011;47555;51.038;6.280;2023-01-23T03:59:20;39.20;;;15.77;;
25153;SDS011;47555;51.038;6.280;2023-01-23T04:01:46;44.80;;;17.63;;
25153;SDS011;47555;51.038;6.280;2023-01-23T04:04:14;39.58;;;16.63;;
25153;SDS011;47555;51.038;6.280;2023-01-23T04:06:40;38.70;;;16.63;;
25153;SDS011;47555;51.038;6.280;2023-01-23T04:09:05;37.05;;;16.17;;
25153;SDS011;47555;51.038;6.280;2023-01-23T04:11:31;44.30;;;17.45;;
25153;SDS011;47555;51.038;6.280;2023-01-23T04:13:56;39.35;;;17.35;;
25153;SDS011;47555;51.038;6.280;2023-01-23T04:16:22;34.95;;;15.68;;
25153;SDS011;47555;51.038;6.280;2023-01-23T04:18:48;41.75;;;16.02;;
25153;SDS011;47555;51.038;6.280;2023-01-23T04:21:14;42.33;;;15.48;;
25153;SDS011;47555;51.038;6.280;2023-01-23T04:23:40;41.03;;;16.25;;
25153;SDS011;47555;51.038;6.280;2023-01-23T04:26:06;39.90;;;15.35;;
25153;SDS011;47555;51.038;6.280;2023-01-23T04:28:31;33.47;;;14.95;;
25153;SDS011;47555;51.038;6.280;2023-01-23T04:30:57;42.33;;;16.23;;
25153;SDS011;47555;51.038;6.280;2023-01-23T04:33:23;37.60;;;16.05;;
25153;SDS011;47555;51.038;6.280;2023-01-23T04:35:55;41.75;;;16.30;;
25153;SDS011;47555;51.038;6.280;2023-01-23T04:38:23;39.38;;;15.80;;
25153;SDS011;47555;51.038;6.280;2023-01-23T04:40:50;37.45;;;15.05;;
25153;SDS011;47555;51.038;6.280;2023-01-23T04:43:16;33.92;;;15.23;;
25153;SDS011;47555;51.038;6.280;2023-01-23T04:45:42;34.10;;;15.50;;
25153;SDS011;47555;51.038;6.280;2023-01-23T04:48:10;34.22;;;14.93;;
25153;SDS011;47555;51.038;6.280;2023-01-23T04:50:36;30.73;;;13.95;;
25153;SDS011;47555;51.038;6.280;2023-01-23T04:53:02;36.50;;;16.35;;
25153;SDS011;47555;51.038;6.280;2023-01-23T04:55:28;35.47;;;15.38;;
25153;SDS011;47555;51.038;6.280;2023-01-23T04:57:54;38.72;;;15.35;;
25153;SDS011;47555;51.038;6.280;2023-01-23T05:00:19;35.38;;;14.43;;
25153;SDS011;47555;51.038;6.280;2023-01-23T05:02:45;34.58;;;14.38;;
25153;SDS011;47555;51.038;6.280;2023-01-23T05:05:12;35.70;;;13.85;;
25153;SDS011;47555;51.038;6.280;2023-01-23T05:07:38;36.00;;;16.08;;
25153;SDS011;47555;51.038;6.280;2023-01-23T05:10:04;37.00;;;14.88;;
25153;SDS011;47555;51.038;6.280;2023-01-23T05:12:30;37.22;;;15.40;;
25153;SDS011;47555;51.038;6.280;2023-01-23T05:14:56;35.13;;;14.80;;
25153;SDS011;47555;51.038;6.280;2023-01-23T05:17:21;35.00;;;16.08;;
25153;SDS011;47555;51.038;6.280;2023-01-23T05:19:47;36.25;;;15.63;;
25153;SDS011;47555;51.038;6.280;2023-01-23T05:22:12;35.83;;;15.38;;
25153;SDS011;47555;51.038;6.280;2023-01-23T05:24:38;37.85;;;16.75;;
25153;SDS011;47555;51.038;6.280;2023-01-23T05:27:03;44.35;;;18.70;;
25153;SDS011;47555;51.038;6.280;2023-01-23T05:29:29;36.08;;;15.00;;
25153;SDS011;47555;51.038;6.280;2023-01-23T05:31:55;38.60;;;17.23;;
25153;SDS011;47555;51.038;6.280;2023-01-23T05:34:20;38.67;;;15.65;;
25153;SDS011;47555;51.038;6.280;2023-01-23T05:36:46;38.15;;;14.98;;
25153;SDS011;47555;51.038;6.280;2023-01-23T05:39:11;41.53;;;16.23;;
25153;SDS011;47555;51.038;6.280;2023-01-23T05:41:37;36.53;;;15.68;;
25153;SDS011;47555;51.038;6.280;2023-01-23T05:44:02;34.30;;;14.82;;
25153;SDS011;47555;51.038;6.280;2023-01-23T05:46:28;33.03;;;14.27;;
25153;SDS011;47555;51.038;6.280;2023-01-23T05:48:53;34.30;;;14.38;;
25153;SDS011;47555;51.038;6.280;2023-01-23T05:51:19;33.38;;;14.43;;
25153;SDS011;47555;51.038;6.280;2023-01-23T05:53:45;34.17;;;15.15;;
25153;SDS011;47555;51.038;6.280;2023-01-23T05:56:10;33.15;;;14.10;;
25153;SDS011;47555;51.038;6.280;2023-01-23T05:58:36;36.03;;;15.30;;
25153;SDS011;47555;51.038;6.280;2023-01-23T06:01:02;34.20;;;14.25;;
25153;SDS011;47555;51.038;6.280;2023-01-23T06:03:28;28.85;;;13.95;;
25153;SDS011;47555;51.038;6.280;2023-01-23T06:05:59;31.65;;;13.32;;
25153;SDS011;47555;51.038;6.280;2023-01-23T06:08:25;32.97;;;14.95;;
25153;SDS011;47555;51.038;6.280;2023-01-23T06:10:51;33.50;;;13.95;;
25153;SDS011;47555;51.038;6.280;2023-01-23T06:13:16;33.03;;;12.80;;
25153;SDS011;47555;51.038;6.280;2023-01-23T06:15:42;34.53;;;13.57;;
25153;SDS011;47555;51.038;6.280;2023-01-23T06:18:07;29.77;;;13.35;;
25153;SDS011;47555;51.038;6.280;2023-01-23T06:20:33;34.30;;;14.93;;
25153;SDS011;47555;51.038;6.280;2023-01-23T06:22:58;32.35;;;15.52;;
25153;SDS011;47555;51.038;6.280;2023-01-23T06:25:24;30.50;;;13.68;;
25153;SDS011;47555;51.038;6.280;2023-01-23T06:27:49;33.63;;;14.63;;
25153;SDS011;47555;51.038;6.280;2023-01-23T06:30:15;37.17;;;14.55;;
25153;SDS011;47555;51.038;6.280;2023-01-23T06:32:41;36.35;;;15.48;;
25153;SDS011;47555;51.038;6.280;2023-01-23T06:35:06;31.50;;;14.25;;
25153;SDS011;47555;51.038;6.280;2023-01-23T06:37:32;36.38;;;14.73;;
25153;SDS011;47555;51.038;6.280;2023-01-23T06:39:57;38.50;;;14.50;;
25153;SDS011;47555;51.038;6.280;2023-01-23T06:42:23;35.80;;;14.23;;
25153;SDS011;47555;51.038;6.280;2023-01-23T06:44:51;39.25;;;15.18;;
25153;SDS011;47555;51.038;6.280;2023-01-23T06:47:17;38.60;;;16.73;;
25153;SDS011;47555;51.038;6.280;2023-01-23T06:49:43;33.00;;;13.65;;
25153;SDS011;47555;51.038;6.280;2023-01-23T06:52:09;35.05;;;14.38;;
25153;SDS011;47555;51.038;6.280;2023-01-23T06:54:34;39.35;;;15.93;;
25153;SDS011;47555;51.038;6.280;2023-01-23T06:57:00;34.95;;;14.25;;
25153;SDS011;47555;51.038;6.280;2023-01-23T06:59:26;33.72;;;14.90;;
25153;SDS011;47555;51.038;6.280;2023-01-23T07:01:51;34.58;;;14.00;;
25153;SDS011;47555;51.038;6.280;2023-01-23T07:04:17;35.83;;;15.13;;
25153;SDS011;47555;51.038;6.280;2023-01-23T07:06:43;35.08;;;13.50;;
25153;SDS011;47555;51.038;6.280;2023-01-23T07:09:08;33.20;;;14.25;;
25153;SDS011;47555;51.038;6.280;2023-01-23T07:11:34;32.53;;;13.60;;
25153;SDS011;47555;51.038;6.280;2023-01-23T07:14:01;32.85;;;12.07;;
25153;SDS011;47555;51.038;6.280;2023-01-23T07:16:26;33.20;;;13.70;;
25153;SDS011;47555;51.038;6.280;2023-01-23T07:18:52;30.95;;;13.35;;
25153;SDS011;47555;51.038;6.280;2023-01-23T07:21:18;31.77;;;15.05;;
25153;SDS011;47555;51.038;6.280;2023-01-23T07:23:43;31.95;;;12.93;;
25153;SDS011;47555;51.038;6.280;2023-01-23T07:26:09;33.08;;;13.57;;
25153;SDS011;47555;51.038;6.280;2023-01-23T07:28:36;30.80;;;13.77;;
25153;SDS011;47555;51.038;6.280;2023-01-23T07:31:02;30.75;;;13.90;;
25153;SDS011;47555;51.038;6.280;2023-01-23T07:33:28;36.67;;;14.15;;
25153;SDS011;47555;51.038;6.280;2023-01-23T07:35:54;33.03;;;13.05;;
25153;SDS011;47555;51.038;6.280;2023-01-23T07:38:19;30.02;;;13.95;;
25153;SDS011;47555;51.038;6.280;2023-01-23T07:40:49;34.08;;;14.13;;
25153;SDS011;47555;51.038;6.280;2023-01-23T07:43:15;36.33;;;14.70;;
25153;SDS011;47555;51.038;6.280;2023-01-23T07:45:41;34.55;;;15.32;;
25153;SDS011;47555;51.038;6.280;2023-01-23T07:48:07;35.25;;;14.05;;
25153;SDS011;47555;51.038;6.280;2023-01-23T07:50:33;28.98;;;12.80;;
25153;SDS011;47555;51.038;6.280;2023-01-23T07:52:59;35.90;;;13.15;;
25153;SDS011;47555;51.038;6.280;2023-01-23T07:55:25;34.13;;;14.80;;
25153;SDS011;47555;51.038;6.280;2023-01-23T07:57:51;32.60;;;13.45;;
25153;SDS011;47555;51.038;6.280;2023-01-23T08:00:16;29.25;;;13.02;;
25153;SDS011;47555;51.038;6.280;2023-01-23T08:02:42;33.70;;;13.98;;
25153;SDS011;47555;51.038;6.280;2023-01-23T08:05:08;29.35;;;13.13;;
25153;SDS011;47555;51.038;6.280;2023-01-23T08:07:34;29.33;;;14.18;;
25153;SDS011;47555;51.038;6.280;2023-01-23T08:09:59;27.88;;;12.88;;
25153;SDS011;47555;51.038;6.280;2023-01-23T08:12:25;31.33;;;13.50;;
25153;SDS011;47555;51.038;6.280;2023-01-23T08:14:50;27.05;;;12.57;;
25153;SDS011;47555;51.038;6.280;2023-01-23T08:17:16;31.00;;;12.85;;
25153;SDS011;47555;51.038;6.280;2023-01-23T08:19:41;26.20;;;13.00;;
25153;SDS011;47555;51.038;6.280;2023-01-23T08:22:07;29.33;;;12.23;;
25153;SDS011;47555;51.038;6.280;2023-01-23T08:24:32;25.17;;;11.82;;
25153;SDS011;47555;51.038;6.280;2023-01-23T08:26:58;31.45;;;12.98;;
25153;SDS011;47555;51.038;6.280;2023-01-23T08:29:23;26.88;;;12.13;;
25153;SDS011;47555;51.038;6.280;2023-01-23T08:31:49;29.17;;;11.98;;
25153;SDS011;47555;51.038;6.280;2023-01-23T08:34:18;28.50;;;11.70;;
25153;SDS011;47555;51.038;6.280;2023-01-23T08:36:44;24.10;;;12.35;;
25153;SDS011;47555;51.038;6.280;2023-01-23T08:39:10;29.30;;;12.38;;
25153;SDS011;47555;51.038;6.280;2023-01-23T08:41:35;24.83;;;11.90;;
25153;SDS011;47555;51.038;6.280;2023-01-23T08:44:01;31.92;;;13.65;;
25153;SDS011;47555;51.038;6.280;2023-01-23T08:46:29;32.80;;;12.15;;
25153;SDS011;47555;51.038;6.280;2023-01-23T08:48:54;22.73;;;11.63;;
25153;SDS011;47555;51.038;6.280;2023-01-23T08:51:20;27.70;;;11.60;;
25153;SDS011;47555;51.038;6.280;2023-01-23T08:53:45;25.63;;;12.10;;
25153;SDS011;47555;51.038;6.280;2023-01-23T08:56:15;28.85;;;11.68;;
25153;SDS011;47555;51.038;6.280;2023-01-23T08:58:42;26.83;;;12.25;;
25153;SDS011;47555;51.038;6.280;2023-01-23T09:01:16;25.88;;;12.43;;
25153;SDS011;47555;51.038;6.280;2023-01-23T09:03:44;25.15;;;11.23;;
25153;SDS011;47555;51.038;6.280;2023-01-23T09:06:13;25.85;;;11.90;;
25153;SDS011;47555;51.038;6.280;2023-01-23T09:08:40;30.30;;;12.50;;
25153;SDS011;47555;51.038;6.280;2023-01-23T09:11:07;28.85;;;13.10;;
25153;SDS011;47555;51.038;6.280;2023-01-23T09:13:34;34.08;;;13.15;;
25153;SDS011;47555;51.038;6.280;2023-01-23T09:16:00;27.60;;;12.45;;
25153;SDS011;47555;51.038;6.280;2023-01-23T09:18:27;22.92;;;11.38;;
25153;SDS011;47555;51.038;6.280;2023-01-23T09:20:53;27.38;;;12.55;;
25153;SDS011;47555;51.038;6.280;2023-01-23T09:23:19;28.95;;;13.35;;
25153;SDS011;47555;51.038;6.280;2023-01-23T09:25:45;26.70;;;12.02;;
25153;SDS011;47555;51.038;6.280;2023-01-23T09:28:10;24.52;;;12.40;;
25153;SDS011;47555;51.038;6.280;2023-01-23T09:30:36;26.17;;;11.63;;
25153;SDS011;47555;51.038;6.280;2023-01-23T09:33:02;27.55;;;11.90;;
25153;SDS011;47555;51.038;6.280;2023-01-23T09:35:28;28.30;;;12.60;;
25153;SDS011;47555;51.038;6.280;2023-01-23T09:37:54;31.23;;;11.85;;
25153;SDS011;47555;51.038;6.280;2023-01-23T09:40:33;26.75;;;11.65;;
25153;SDS011;47555;51.038;6.280;2023-01-23T09:43:23;29.17;;;11.35;;
25153;SDS011;47555;51.038;6.280;2023-01-23T09:53:49;23.20;;;10.77;;
25153;SDS011;47555;51.038;6.280;2023-01-23T09:56:18;25.02;;;10.63;;
25153;SDS011;47555;51.038;6.280;2023-01-23T09:58:54;22.90;;;10.68;;
25153;SDS011;47555;51.038;6.280;2023-01-23T10:01:41;22.40;;;10.15;;
25153;SDS011;47555;51.038;6.280;2023-01-23T10:04:09;24.42;;;11.93;;
25153;SDS011;47555;51.038;6.280;2023-01-23T10:06:47;23.08;;;11.20;;
25153;SDS011;47555;51.038;6.280;2023-01-23T10:09:30;23.92;;;10.85;;
25153;SDS011;47555;51.038;6.280;2023-01-23T10:12:05;26.65;;;11.13;;
25153;SDS011;47555;51.038;6.280;2023-01-23T10:14:50;22.08;;;11.07;;
25153;SDS011;47555;51.038;6.280;2023-01-23T10:17:48;24.27;;;11.07;;
25153;SDS011;47555;51.038;6.280;2023-01-23T10:20:31;22.48;;;10.68;;
25153;SDS011;47555;51.038;6.280;2023-01-23T10:25:35;26.08;;;10.95;;
25153;SDS011;47555;51.038;6.280;2023-01-23T10:30:57;25.60;;;10.43;;
25153;SDS011;47555;51.038;6.280;2023-01-23T10:36:29;22.52;;;9.65;;
25153;SDS011;47555;51.038;6.280;2023-01-23T10:39:26;22.08;;;10.38;;
25153;SDS011;47555;51.038;6.280;2023-01-23T10:41:59;25.92;;;11.60;;
25153;SDS011;47555;51.038;6.280;2023-01-23T10:44:24;22.67;;;10.43;;
25153;SDS011;47555;51.038;6.280;2023-01-23T10:46:54;24.40;;;11.60;;
25153;SDS011;47555;51.038;6.280;2023-01-23T10:49:30;25.45;;;11.48;;
25153;SDS011;47555;51.038;6.280;2023-01-23T10:52:01;25.85;;;12.43;;
25153;SDS011;47555;51.038;6.280;2023-01-23T10:54:28;25.42;;;11.65;;
25153;SDS011;47555;51.038;6.280;2023-01-23T10:56:55;24.33;;;11.15;;
25153;SDS011;47555;51.038;6.280;2023-01-23T10:59:30;21.95;;;9.73;;
25153;SDS011;47555;51.038;6.280;2023-01-23T11:04:37;25.88;;;12.18;;
25153;SDS011;47555;51.038;6.280;2023-01-23T11:09:47;25.50;;;12.35;;
25153;SDS011;47555;51.038;6.280;2023-01-23T11:12:16;26.88;;;11.38;;
25153;SDS011;47555;51.038;6.280;2023-01-23T11:14:44;25.58;;;11.27;;
25153;SDS011;47555;51.038;6.280;2023-01-23T11:17:18;30.02;;;12.75;;
25153;SDS011;47555;51.038;6.280;2023-01-23T11:19:47;31.05;;;11.95;;
25153;SDS011;47555;51.038;6.280;2023-01-23T11:22:22;23.33;;;10.63;;
25153;SDS011;47555;51.038;6.280;2023-01-23T11:24:57;24.73;;;11.90;;
25153;SDS011;47555;51.038;6.280;2023-01-23T11:27:24;26.38;;;10.70;;
25153;SDS011;47555;51.038;6.280;2023-01-23T11:30:00;30.23;;;13.57;;
25153;SDS011;47555;51.038;6.280;2023-01-23T11:32:28;30.92;;;13.68;;
25153;SDS011;47555;51.038;6.280;2023-01-23T11:35:13;26.10;;;11.80;;
25153;SDS011;47555;51.038;6.280;2023-01-23T11:37:42;32.72;;;13.30;;
25153;SDS011;47555;51.038;6.280;2023-01-23T11:40:12;29.55;;;13.25;;
25153;SDS011;47555;51.038;6.280;2023-01-23T11:42:42;26.02;;;10.52;;
25153;SDS011;47555;51.038;6.280;2023-01-23T11:45:22;26.67;;;11.15;;
25153;SDS011;47555;51.038;6.280;2023-01-23T11:50:45;22.88;;;10.80;;
25153;SDS011;47555;51.038;6.280;2023-01-23T11:55:56;23.52;;;10.52;;
25153;SDS011;47555;51.038;6.280;2023-01-23T12:01:11;28.50;;;12.38;;
25153;SDS011;47555;51.038;6.280;2023-01-23T12:11:39;22.83;;;11.02;;
25153;SDS011;47555;51.038;6.280;2023-01-23T12:22:42;23.83;;;10.73;;
25153;SDS011;47555;51.038;6.280;2023-01-23T12:41:39;23.05;;;10.32;;
25153;SDS011;47555;51.038;6.280;2023-01-23T12:44:11;22.00;;;10.13;;
25153;SDS011;47555;51.038;6.280;2023-01-23T12:49:38;23.55;;;9.57;;
25153;SDS011;47555;51.038;6.280;2023-01-23T12:52:23;21.00;;;10.02;;
25153;SDS011;47555;51.038;6.280;2023-01-23T12:54:50;21.35;;;10.95;;
25153;SDS011;47555;51.038;6.280;2023-01-23T12:57:37;20.63;;;9.68;;
25153;SDS011;47555;51.038;6.280;2023-01-23T13:02:52;21.00;;;9.27;;
25153;SDS011;47555;51.038;6.280;2023-01-23T13:05:26;24.02;;;10.38;;
25153;SDS011;47555;51.038;6.280;2023-01-23T13:08:02;23.05;;;9.82;;
25153;SDS011;47555;51.038;6.280;2023-01-23T13:13:57;20.92;;;9.93;;
25153;SDS011;47555;51.038;6.280;2023-01-23T13:16:25;22.23;;;9.65;;
25153;SDS011;47555;51.038;6.280;2023-01-23T13:19:00;20.10;;;8.93;;
25153;SDS011;47555;51.038;6.280;2023-01-23T13:24:52;19.63;;;8.73;;
25153;SDS011;47555;51.038;6.280;2023-01-23T13:27:44;19.70;;;8.68;;
25153;SDS011;47555;51.038;6.280;2023-01-23T13:32:56;19.67;;;8.55;;
25153;SDS011;47555;51.038;6.280;2023-01-23T13:49:15;20.08;;;8.50;;
25153;SDS011;47555;51.038;6.280;2023-01-23T13:52:14;14.07;;;8.05;;
25153;SDS011;47555;51.038;6.280;2023-01-23T13:55:01;12.23;;;7.50;;
25153;SDS011;47555;51.038;6.280;2023-01-23T13:57:56;16.00;;;8.40;;
25153;SDS011;47555;51.038;6.280;2023-01-23T14:00:22;14.43;;;7.65;;
25153;SDS011;47555;51.038;6.280;2023-01-23T14:03:08;12.75;;;7.25;;
25153;SDS011;47555;51.038;6.280;2023-01-23T14:06:03;15.63;;;7.88;;
25153;SDS011;47555;51.038;6.280;2023-01-23T14:08:29;13.68;;;7.72;;
25153;SDS011;47555;51.038;6.280;2023-01-23T14:10:55;13.77;;;7.60;;
25153;SDS011;47555;51.038;6.280;2023-01-23T14:13:21;12.40;;;7.03;;
25153;SDS011;47555;51.038;6.280;2023-01-23T14:15:49;15.15;;;8.02;;
25153;SDS011;47555;51.038;6.280;2023-01-23T14:21:48;16.95;;;8.02;;
25153;SDS011;47555;51.038;6.280;2023-01-23T14:24:18;15.73;;;8.63;;
25153;SDS011;47555;51.038;6.280;2023-01-23T14:26:49;15.25;;;8.27;;
25153;SDS011;47555;51.038;6.280;2023-01-23T14:29:20;14.57;;;7.75;;
25153;SDS011;47555;51.038;6.280;2023-01-23T14:31:47;16.53;;;9.13;;
25153;SDS011;47555;51.038;6.280;2023-01-23T14:34:15;15.50;;;7.85;;
25153;SDS011;47555;51.038;6.280;2023-01-23T14:36:53;17.88;;;8.32;;
25153;SDS011;47555;51.038;6.280;2023-01-23T14:39:30;16.42;;;8.10;;
25153;SDS011;47555;51.038;6.280;2023-01-23T14:41:58;19.55;;;8.30;;
25153;SDS011;47555;51.038;6.280;2023-01-23T14:44:26;17.63;;;8.75;;
25153;SDS011;47555;51.038;6.280;2023-01-23T14:47:14;16.88;;;8.65;;
25153;SDS011;47555;51.038;6.280;2023-01-23T14:49:50;16.63;;;7.70;;
25153;SDS011;47555;51.038;6.280;2023-01-23T14:52:20;17.42;;;8.88;;
25153;SDS011;47555;51.038;6.280;2023-01-23T14:54:50;14.02;;;7.32;;
25153;SDS011;47555;51.038;6.280;2023-01-23T14:57:17;13.95;;;7.47;;
25153;SDS011;47555;51.038;6.280;2023-01-23T14:59:44;14.00;;;7.45;;
25153;SDS011;47555;51.038;6.280;2023-01-23T15:02:25;13.35;;;7.53;;
25153;SDS011;47555;51.038;6.280;2023-01-23T15:07:58;20.60;;;8.70;;
25153;SDS011;47555;51.038;6.280;2023-01-23T15:16:04;12.95;;;6.82;;
25153;SDS011;47555;51.038;6.280;2023-01-23T15:18:34;9.88;;;6.88;;
25153;SDS011;47555;51.038;6.280;2023-01-23T15:21:01;12.48;;;7.25;;
25153;SDS011;47555;51.038;6.280;2023-01-23T15:23:30;12.55;;;6.70;;
25153;SDS011;47555;51.038;6.280;2023-01-23T15:26:07;10.98;;;6.55;;
25153;SDS011;47555;51.038;6.280;2023-01-23T15:37:00;12.98;;;7.00;;
25153;SDS011;47555;51.038;6.280;2023-01-23T15:39:50;13.65;;;8.20;;
25153;SDS011;47555;51.038;6.280;2023-01-23T15:42:31;14.60;;;7.68;;
25153;SDS011;47555;51.038;6.280;2023-01-23T15:44:58;13.25;;;7.50;;
25153;SDS011;47555;51.038;6.280;2023-01-23T15:47:31;12.90;;;8.07;;
25153;SDS011;47555;51.038;6.280;2023-01-23T15:49:58;14.52;;;7.43;;
25153;SDS011;47555;51.038;6.280;2023-01-23T15:55:12;10.15;;;6.68;;
25153;SDS011;47555;51.038;6.280;2023-01-23T15:57:39;14.45;;;6.93;;
25153;SDS011;47555;51.038;6.280;2023-01-23T16:02:43;14.07;;;7.80;;
25153;SDS011;47555;51.038;6.280;2023-01-23T16:05:09;12.73;;;7.82;;
25153;SDS011;47555;51.038;6.280;2023-01-23T16:07:39;15.52;;;8.85;;
25153;SDS011;47555;51.038;6.280;2023-01-23T16:10:19;13.10;;;7.30;;
25153;SDS011;47555;51.038;6.280;2023-01-23T16:12:46;14.20;;;7.90;;
25153;SDS011;47555;51.038;6.280;2023-01-23T16:15:14;14.05;;;8.45;;
25153;SDS011;47555;51.038;6.280;2023-01-23T16:17:41;13.52;;;7.72;;
25153;SDS011;47555;51.038;6.280;2023-01-23T16:20:12;12.95;;;7.53;;
25153;SDS011;47555;51.038;6.280;2023-01-23T16:22:45;15.35;;;8.05;;
25153;SDS011;47555;51.038;6.280;2023-01-23T16:25:35;14.80;;;7.38;;
25153;SDS011;47555;51.038;6.280;2023-01-23T16:28:03;16.05;;;7.95;;
25153;SDS011;47555;51.038;6.280;2023-01-23T16:30:29;15.32;;;7.78;;
25153;SDS011;47555;51.038;6.280;2023-01-23T16:32:54;13.02;;;7.88;;
25153;SDS011;47555;51.038;6.280;2023-01-23T16:35:21;18.98;;;8.10;;
25153;SDS011;47555;51.038;6.280;2023-01-23T16:37:48;14.68;;;7.47;;
25153;SDS011;47555;51.038;6.280;2023-01-23T16:42:51;13.45;;;7.28;;
25153;SDS011;47555;51.038;6.280;2023-01-23T16:45:24;15.65;;;8.50;;
25153;SDS011;47555;51.038;6.280;2023-01-23T16:47:51;14.65;;;7.63;;